Rechercher aéroport 
image banner adimage banner adimage banner ad
image banner ad

72CL - Iron Mountain Pumping Plant

Situé à Desert Center, United States

ICAO - 72CL, IATA -

Données fournies par Airmate  

Information générale

Coordonnées: N34°8'3" W115°7'9"
Élévation : 890 feet MSL.
Variation magnétique : 13° East
Voir autres Aéroports à California

Données opérationnelles

Special qualification required
Heure actuelle UTC:
Heure actuelle locale:
Météo à : KBLH - Blythe ( 68 km )
TAF: KBLH 260538Z 2606/2706 18005KT P6SM FEW100 SCT250 FM262000 14010KT P6SM FEW100 SCT150 FM270000 18005KT P6SM FEW150 FEW250
Voir NOTAMs / SUP AIP / TFR affectant cet aéroport [VIEW]
Fréquences de communication: [VIEW]

Pistes:

Identifiant RWYQFULongueur (ft)Largeur (ft)SurfaceLDA (ft)
17320030ASPH
35320030ASPH

Coordonnées de l'aéroport

Adresse: Desert Center United States

Vue satellite de 72CL